sensor_id;sensor_type;location;lat;lon;timestamp;pressure;altitude;pressure_sealevel;temperature
63689;BMP280;54895;40.928;14.480;2023-04-08T00:01:58;101417.06;;;11.61
63689;BMP280;54895;40.928;14.480;2023-04-08T00:04:24;101415.94;;;11.51
63689;BMP280;54895;40.928;14.480;2023-04-08T00:06:52;101419.38;;;11.46
63689;BMP280;54895;40.928;14.480;2023-04-08T00:09:23;101412.56;;;11.45
63689;BMP280;54895;40.928;14.480;2023-04-08T00:11:57;101404.41;;;11.43
63689;BMP280;54895;40.928;14.480;2023-04-08T00:14:23;101377.56;;;11.06
63689;BMP280;54895;40.928;14.480;2023-04-08T00:16:50;101391.19;;;11.56
63689;BMP280;54895;40.928;14.480;2023-04-08T00:19:16;101378.22;;;11.12
63689;BMP280;54895;40.928;14.480;2023-04-08T00:21:43;101372.22;;;11.06
63689;BMP280;54895;40.928;14.480;2023-04-08T00:24:09;101368.06;;;11.10
63689;BMP280;54895;40.928;14.480;2023-04-08T00:26:35;101356.50;;;11.02
63689;BMP280;54895;40.928;14.480;2023-04-08T00:29:04;101359.31;;;11.15
63689;BMP280;54895;40.928;14.480;2023-04-08T00:31:30;101350.81;;;11.17
63689;BMP280;54895;40.928;14.480;2023-04-08T00:33:58;101353.81;;;11.08
63689;BMP280;54895;40.928;14.480;2023-04-08T00:36:24;101348.50;;;11.02
63689;BMP280;54895;40.928;14.480;2023-04-08T00:38:51;101340.72;;;11.10
63689;BMP280;54895;40.928;14.480;2023-04-08T00:41:18;101339.31;;;11.33
63689;BMP280;54895;40.928;14.480;2023-04-08T00:43:44;101330.69;;;10.92
63689;BMP280;54895;40.928;14.480;2023-04-08T00:46:11;101316.13;;;10.93
63689;BMP280;54895;40.928;14.480;2023-04-08T00:48:37;101337.50;;;11.17
63689;BMP280;54895;40.928;14.480;2023-04-08T00:51:04;101342.06;;;11.22
63689;BMP280;54895;40.928;14.480;2023-04-08T00:53:30;101342.78;;;11.22
63689;BMP280;54895;40.928;14.480;2023-04-08T00:55:57;101361.88;;;11.56
63689;BMP280;54895;40.928;14.480;2023-04-08T00:58:27;101363.06;;;11.55
63689;BMP280;54895;40.928;14.480;2023-04-08T01:00:59;101354.59;;;11.56
63689;BMP280;54895;40.928;14.480;2023-04-08T01:06:16;101354.06;;;11.34
63689;BMP280;54895;40.928;14.480;2023-04-08T01:08:44;101342.97;;;11.30
63689;BMP280;54895;40.928;14.480;2023-04-08T01:11:12;101329.41;;;11.28
63689;BMP280;54895;40.928;14.480;2023-04-08T01:13:40;101346.31;;;11.36
63689;BMP280;54895;40.928;14.480;2023-04-08T01:16:09;101337.78;;;11.43
63689;BMP280;54895;40.928;14.480;2023-04-08T01:18:37;101345.44;;;11.52
63689;BMP280;54895;40.928;14.480;2023-04-08T01:21:05;101347.44;;;11.46
63689;BMP280;54895;40.928;14.480;2023-04-08T01:26:20;101326.53;;;11.26
63689;BMP280;54895;40.928;14.480;2023-04-08T01:28:49;101333.75;;;11.31
63689;BMP280;54895;40.928;14.480;2023-04-08T01:31:18;101332.84;;;11.23
63689;BMP280;54895;40.928;14.480;2023-04-08T01:33:45;101341.53;;;11.29
63689;BMP280;54895;40.928;14.480;2023-04-08T01:36:12;101328.75;;;11.22
63689;BMP280;54895;40.928;14.480;2023-04-08T01:38:39;101302.34;;;10.94
63689;BMP280;54895;40.928;14.480;2023-04-08T01:41:10;101300.16;;;10.93
63689;BMP280;54895;40.928;14.480;2023-04-08T01:43:40;101313.44;;;11.28
63689;BMP280;54895;40.928;14.480;2023-04-08T01:46:09;101324.69;;;11.39
63689;BMP280;54895;40.928;14.480;2023-04-08T01:48:37;101315.34;;;11.33
63689;BMP280;54895;40.928;14.480;2023-04-08T01:51:04;101303.75;;;11.30
63689;BMP280;54895;40.928;14.480;2023-04-08T01:53:31;101279.47;;;10.75
63689;BMP280;54895;40.928;14.480;2023-04-08T01:56:08;101273.50;;;10.69
63689;BMP280;54895;40.928;14.480;2023-04-08T01:58:42;101261.63;;;11.29
63689;BMP280;54895;40.928;14.480;2023-04-08T02:01:13;101293.22;;;11.14
63689;BMP280;54895;40.928;14.480;2023-04-08T02:03:43;101305.47;;;11.52
63689;BMP280;54895;40.928;14.480;2023-04-08T02:06:10;101303.19;;;11.37
63689;BMP280;54895;40.928;14.480;2023-04-08T02:08:36;101282.41;;;10.77
63689;BMP280;54895;40.928;14.480;2023-04-08T02:11:03;101272.38;;;10.88
63689;BMP280;54895;40.928;14.480;2023-04-08T02:13:30;101260.44;;;10.95
63689;BMP280;54895;40.928;14.480;2023-04-08T02:18:42;101301.88;;;11.68
63689;BMP280;54895;40.928;14.480;2023-04-08T02:21:14;101313.25;;;11.74
63689;BMP280;54895;40.928;14.480;2023-04-08T02:23:45;101306.00;;;11.93
63689;BMP280;54895;40.928;14.480;2023-04-08T02:26:15;101318.22;;;11.83
63689;BMP280;54895;40.928;14.480;2023-04-08T02:28:42;101309.78;;;11.55
63689;BMP280;54895;40.928;14.480;2023-04-08T02:31:10;101311.53;;;11.52
63689;BMP280;54895;40.928;14.480;2023-04-08T02:33:44;101290.38;;;11.36
63689;BMP280;54895;40.928;14.480;2023-04-08T02:36:12;101295.88;;;11.38
63689;BMP280;54895;40.928;14.480;2023-04-08T02:38:40;101288.69;;;11.33
63689;BMP280;54895;40.928;14.480;2023-04-08T02:41:06;101258.38;;;11.12
63689;BMP280;54895;40.928;14.480;2023-04-08T02:43:32;101266.66;;;11.32
63689;BMP280;54895;40.928;14.480;2023-04-08T02:46:04;101264.81;;;11.46
63689;BMP280;54895;40.928;14.480;2023-04-08T02:48:30;101286.41;;;11.66
63689;BMP280;54895;40.928;14.480;2023-04-08T02:50:57;101278.03;;;11.57
63689;BMP280;54895;40.928;14.480;2023-04-08T02:53:24;101285.59;;;11.53
63689;BMP280;54895;40.928;14.480;2023-04-08T02:55:50;101279.91;;;11.38
63689;BMP280;54895;40.928;14.480;2023-04-08T02:58:17;101218.22;;;10.51
63689;BMP280;54895;40.928;14.480;2023-04-08T03:00:43;101210.31;;;10.40
63689;BMP280;54895;40.928;14.480;2023-04-08T03:03:09;101175.66;;;10.51
63689;BMP280;54895;40.928;14.480;2023-04-08T03:05:36;101220.00;;;11.26
63689;BMP280;54895;40.928;14.480;2023-04-08T03:08:02;101231.03;;;11.11
63689;BMP280;54895;40.928;14.480;2023-04-08T03:10:28;101208.06;;;10.84
63689;BMP280;54895;40.928;14.480;2023-04-08T03:12:55;101192.47;;;10.64
63689;BMP280;54895;40.928;14.480;2023-04-08T03:15:21;101185.84;;;10.76
63689;BMP280;54895;40.928;14.480;2023-04-08T03:17:48;101204.94;;;11.28
63689;BMP280;54895;40.928;14.480;2023-04-08T03:20:14;101197.47;;;11.03
63689;BMP280;54895;40.928;14.480;2023-04-08T03:22:40;101191.16;;;11.06
63689;BMP280;54895;40.928;14.480;2023-04-08T03:25:07;101215.28;;;11.37
63689;BMP280;54895;40.928;14.480;2023-04-08T03:27:33;101204.41;;;11.11
63689;BMP280;54895;40.928;14.480;2023-04-08T03:30:00;101194.22;;;11.10
63689;BMP280;54895;40.928;14.480;2023-04-08T03:32:26;101196.47;;;11.06
63689;BMP280;54895;40.928;14.480;2023-04-08T03:34:53;101197.91;;;11.07
63689;BMP280;54895;40.928;14.480;2023-04-08T03:37:19;101216.84;;;11.46
63689;BMP280;54895;40.928;14.480;2023-04-08T03:39:45;101200.50;;;11.12
63689;BMP280;54895;40.928;14.480;2023-04-08T03:42:12;101191.91;;;11.01
63689;BMP280;54895;40.928;14.480;2023-04-08T03:44:38;101186.56;;;11.01
63689;BMP280;54895;40.928;14.480;2023-04-08T03:47:04;101186.06;;;11.02
63689;BMP280;54895;40.928;14.480;2023-04-08T03:49:30;101189.13;;;11.12
63689;BMP280;54895;40.928;14.480;2023-04-08T03:51:57;101200.94;;;11.16
63689;BMP280;54895;40.928;14.480;2023-04-08T03:54:23;101199.63;;;11.28
63689;BMP280;54895;40.928;14.480;2023-04-08T03:56:49;101196.00;;;11.26
63689;BMP280;54895;40.928;14.480;2023-04-08T03:59:16;101186.00;;;11.32
63689;BMP280;54895;40.928;14.480;2023-04-08T04:01:42;101191.22;;;11.43
63689;BMP280;54895;40.928;14.480;2023-04-08T04:04:08;101198.00;;;11.62
63689;BMP280;54895;40.928;14.480;2023-04-08T04:06:35;101213.75;;;11.66
63689;BMP280;54895;40.928;14.480;2023-04-08T04:09:01;101213.16;;;11.73
63689;BMP280;54895;40.928;14.480;2023-04-08T04:11:27;101228.75;;;11.82
63689;BMP280;54895;40.928;14.480;2023-04-08T04:13:54;101240.75;;;11.94
63689;BMP280;54895;40.928;14.480;2023-04-08T04:16:20;101263.59;;;12.26
63689;BMP280;54895;40.928;14.480;2023-04-08T04:18:46;101251.91;;;11.74
63689;BMP280;54895;40.928;14.480;2023-04-08T04:21:12;101232.41;;;11.66
63689;BMP280;54895;40.928;14.480;2023-04-08T04:23:39;101251.72;;;12.09
63689;BMP280;54895;40.928;14.480;2023-04-08T04:26:09;101244.84;;;11.76
63689;BMP280;54895;40.928;14.480;2023-04-08T04:28:37;101213.53;;;11.40
63689;BMP280;54895;40.928;14.480;2023-04-08T04:31:03;101222.44;;;11.66
63689;BMP280;54895;40.928;14.480;2023-04-08T04:33:30;101216.44;;;11.60
63689;BMP280;54895;40.928;14.480;2023-04-08T04:35:56;101209.31;;;11.50
63689;BMP280;54895;40.928;14.480;2023-04-08T04:38:23;101201.44;;;11.39
63689;BMP280;54895;40.928;14.480;2023-04-08T04:40:49;101190.44;;;11.48
63689;BMP280;54895;40.928;14.480;2023-04-08T04:43:15;101199.88;;;11.67
63689;BMP280;54895;40.928;14.480;2023-04-08T04:45:41;101183.34;;;11.32
63689;BMP280;54895;40.928;14.480;2023-04-08T04:48:09;101182.34;;;11.59
63689;BMP280;54895;40.928;14.480;2023-04-08T04:50:35;101189.06;;;11.60
63689;BMP280;54895;40.928;14.480;2023-04-08T04:53:01;101164.84;;;11.39
63689;BMP280;54895;40.928;14.480;2023-04-08T04:55:27;101154.03;;;11.32
63689;BMP280;54895;40.928;14.480;2023-04-08T04:57:54;101166.31;;;11.40
63689;BMP280;54895;40.928;14.480;2023-04-08T05:00:20;101195.84;;;11.61
63689;BMP280;54895;40.928;14.480;2023-04-08T05:02:46;101181.84;;;11.55
63689;BMP280;54895;40.928;14.480;2023-04-08T05:05:12;101190.44;;;11.48
63689;BMP280;54895;40.928;14.480;2023-04-08T05:07:39;101188.19;;;11.52
63689;BMP280;54895;40.928;14.480;2023-04-08T05:10:05;101188.19;;;11.70
63689;BMP280;54895;40.928;14.480;2023-04-08T05:12:32;101203.69;;;11.72
63689;BMP280;54895;40.928;14.480;2023-04-08T05:14:58;101194.84;;;11.64
63689;BMP280;54895;40.928;14.480;2023-04-08T05:17:24;101208.09;;;12.06
63689;BMP280;54895;40.928;14.480;2023-04-08T05:19:51;101183.59;;;11.89
63689;BMP280;54895;40.928;14.480;2023-04-08T05:22:18;101204.22;;;11.89
63689;BMP280;54895;40.928;14.480;2023-04-08T05:24:44;101204.78;;;12.00
63689;BMP280;54895;40.928;14.480;2023-04-08T05:27:11;101196.75;;;11.87
63689;BMP280;54895;40.928;14.480;2023-04-08T05:29:37;101206.34;;;11.90
63689;BMP280;54895;40.928;14.480;2023-04-08T05:32:03;101225.09;;;12.22
63689;BMP280;54895;40.928;14.480;2023-04-08T05:34:30;101227.81;;;12.35
63689;BMP280;54895;40.928;14.480;2023-04-08T05:36:56;101235.00;;;12.40
63689;BMP280;54895;40.928;14.480;2023-04-08T05:39:23;101229.09;;;12.47
63689;BMP280;54895;40.928;14.480;2023-04-08T05:41:49;101245.56;;;12.77
63689;BMP280;54895;40.928;14.480;2023-04-08T05:44:16;101261.22;;;13.12
63689;BMP280;54895;40.928;14.480;2023-04-08T05:46:42;101265.03;;;13.03
63689;BMP280;54895;40.928;14.480;2023-04-08T05:49:08;101258.28;;;12.71
63689;BMP280;54895;40.928;14.480;2023-04-08T05:51:35;101256.66;;;12.68
63689;BMP280;54895;40.928;14.480;2023-04-08T05:54:02;101240.72;;;12.62
63689;BMP280;54895;40.928;14.480;2023-04-08T05:56:28;101260.19;;;12.76
63689;BMP280;54895;40.928;14.480;2023-04-08T05:58:57;101254.38;;;12.72
63689;BMP280;54895;40.928;14.480;2023-04-08T06:01:23;101244.31;;;12.65
63689;BMP280;54895;40.928;14.480;2023-04-08T06:03:51;101255.38;;;13.00
63689;BMP280;54895;40.928;14.480;2023-04-08T06:06:21;101251.91;;;13.18
63689;BMP280;54895;40.928;14.480;2023-04-08T06:08:48;101253.22;;;13.37
63689;BMP280;54895;40.928;14.480;2023-04-08T06:11:14;101252.84;;;13.33
63689;BMP280;54895;40.928;14.480;2023-04-08T06:13:40;101234.53;;;13.24
63689;BMP280;54895;40.928;14.480;2023-04-08T06:16:15;101241.81;;;13.37
63689;BMP280;54895;40.928;14.480;2023-04-08T06:18:45;101248.59;;;13.51
63689;BMP280;54895;40.928;14.480;2023-04-08T06:21:11;101251.09;;;13.82
63689;BMP280;54895;40.928;14.480;2023-04-08T06:23:37;101268.06;;;14.18
63689;BMP280;54895;40.928;14.480;2023-04-08T06:26:04;101268.72;;;14.32
63689;BMP280;54895;40.928;14.480;2023-04-08T06:28:30;101274.47;;;14.56
63689;BMP280;54895;40.928;14.480;2023-04-08T06:30:57;101279.88;;;14.64
63689;BMP280;54895;40.928;14.480;2023-04-08T06:33:24;101275.78;;;14.63
63689;BMP280;54895;40.928;14.480;2023-04-08T06:35:51;101268.81;;;14.39
63689;BMP280;54895;40.928;14.480;2023-04-08T06:38:17;101253.91;;;14.10
63689;BMP280;54895;40.928;14.480;2023-04-08T06:40:44;101228.25;;;13.81
63689;BMP280;54895;40.928;14.480;2023-04-08T06:43:10;101235.16;;;13.77
63689;BMP280;54895;40.928;14.480;2023-04-08T06:45:39;101235.00;;;13.95
63689;BMP280;54895;40.928;14.480;2023-04-08T06:48:07;101247.91;;;14.17
63689;BMP280;54895;40.928;14.480;2023-04-08T06:50:34;101228.22;;;13.94
63689;BMP280;54895;40.928;14.480;2023-04-08T06:53:01;101248.88;;;14.27
63689;BMP280;54895;40.928;14.480;2023-04-08T06:55:27;101225.88;;;13.91
63689;BMP280;54895;40.928;14.480;2023-04-08T06:57:53;101229.38;;;14.19
63689;BMP280;54895;40.928;14.480;2023-04-08T07:00:19;101222.16;;;14.14
63689;BMP280;54895;40.928;14.480;2023-04-08T07:02:46;101200.91;;;13.75
63689;BMP280;54895;40.928;14.480;2023-04-08T07:05:12;101207.81;;;14.04
63689;BMP280;54895;40.928;14.480;2023-04-08T07:07:38;101202.25;;;14.02
63689;BMP280;54895;40.928;14.480;2023-04-08T07:10:05;101175.66;;;13.84
63689;BMP280;54895;40.928;14.480;2023-04-08T07:12:31;101206.81;;;14.35
63689;BMP280;54895;40.928;14.480;2023-04-08T07:14:57;101203.75;;;14.31
63689;BMP280;54895;40.928;14.480;2023-04-08T07:17:23;101203.59;;;14.29
63689;BMP280;54895;40.928;14.480;2023-04-08T07:19:50;101214.97;;;14.50
63689;BMP280;54895;40.928;14.480;2023-04-08T07:22:16;101230.56;;;14.59
63689;BMP280;54895;40.928;14.480;2023-04-08T07:24:43;101218.91;;;14.77
63689;BMP280;54895;40.928;14.480;2023-04-08T07:27:15;101234.81;;;15.03
63689;BMP280;54895;40.928;14.480;2023-04-08T07:29:42;101239.00;;;14.91
63689;BMP280;54895;40.928;14.480;2023-04-08T07:32:08;101250.50;;;14.99
63689;BMP280;54895;40.928;14.480;2023-04-08T07:34:34;101235.09;;;15.35
63689;BMP280;54895;40.928;14.480;2023-04-08T07:37:01;101228.19;;;15.47
63689;BMP280;54895;40.928;14.480;2023-04-08T07:39:28;101229.81;;;15.50
63689;BMP280;54895;40.928;14.480;2023-04-08T07:41:54;101223.19;;;15.44
63689;BMP280;54895;40.928;14.480;2023-04-08T07:44:20;101206.19;;;15.41
63689;BMP280;54895;40.928;14.480;2023-04-08T07:46:46;101202.06;;;15.40
63689;BMP280;54895;40.928;14.480;2023-04-08T07:49:16;101197.06;;;15.44
63689;BMP280;54895;40.928;14.480;2023-04-08T07:51:43;101184.03;;;15.48
63689;BMP280;54895;40.928;14.480;2023-04-08T07:54:09;101194.78;;;15.56
63689;BMP280;54895;40.928;14.480;2023-04-08T07:56:37;101212.56;;;16.11
63689;BMP280;54895;40.928;14.480;2023-04-08T07:59:05;101225.44;;;15.90
63689;BMP280;54895;40.928;14.480;2023-04-08T08:01:31;101216.09;;;15.76
63689;BMP280;54895;40.928;14.480;2023-04-08T08:03:59;101229.88;;;15.73
63689;BMP280;54895;40.928;14.480;2023-04-08T08:06:26;101234.34;;;15.70
63689;BMP280;54895;40.928;14.480;2023-04-08T08:08:57;101236.09;;;15.60
63689;BMP280;54895;40.928;14.480;2023-04-08T08:11:23;101253.66;;;15.76
63689;BMP280;54895;40.928;14.480;2023-04-08T08:13:51;101266.00;;;15.64
63689;BMP280;54895;40.928;14.480;2023-04-08T08:16:18;101269.53;;;15.52
63689;BMP280;54895;40.928;14.480;2023-04-08T08:18:44;101255.03;;;15.47
63689;BMP280;54895;40.928;14.480;2023-04-08T08:21:10;101264.97;;;15.39
63689;BMP280;54895;40.928;14.480;2023-04-08T08:23:37;101268.28;;;15.60
63689;BMP280;54895;40.928;14.480;2023-04-08T08:26:08;101267.78;;;15.69
63689;BMP280;54895;40.928;14.480;2023-04-08T08:28:38;101266.59;;;15.93
63689;BMP280;54895;40.928;14.480;2023-04-08T08:31:04;101263.38;;;15.94
63689;BMP280;54895;40.928;14.480;2023-04-08T08:33:31;101279.16;;;16.28
63689;BMP280;54895;40.928;14.480;2023-04-08T08:35:58;101275.22;;;16.21
63689;BMP280;54895;40.928;14.480;2023-04-08T08:38:24;101273.78;;;16.35
63689;BMP280;54895;40.928;14.480;2023-04-08T08:40:54;101276.84;;;16.61
63689;BMP280;54895;40.928;14.480;2023-04-08T08:43:22;101258.88;;;16.71
63689;BMP280;54895;40.928;14.480;2023-04-08T08:45:48;101264.94;;;17.02
63689;BMP280;54895;40.928;14.480;2023-04-08T08:48:14;101266.13;;;17.16
63689;BMP280;54895;40.928;14.480;2023-04-08T08:50:41;101269.22;;;17.44
63689;BMP280;54895;40.928;14.480;2023-04-08T08:53:07;101243.53;;;17.19
63689;BMP280;54895;40.928;14.480;2023-04-08T08:55:34;101269.75;;;17.50
63689;BMP280;54895;40.928;14.480;2023-04-08T08:58:01;101246.06;;;17.17
63689;BMP280;54895;40.928;14.480;2023-04-08T09:00:38;101251.78;;;17.21
63689;BMP280;54895;40.928;14.480;2023-04-08T09:03:25;101244.59;;;17.16
63689;BMP280;54895;40.928;14.480;2023-04-08T09:06:00;101234.44;;;17.07
63689;BMP280;54895;40.928;14.480;2023-04-08T09:11:29;101232.09;;;17.11
63689;BMP280;54895;40.928;14.480;2023-04-08T09:13:56;101223.91;;;17.41
63689;BMP280;54895;40.928;14.480;2023-04-08T09:16:23;101211.19;;;17.34
63689;BMP280;54895;40.928;14.480;2023-04-08T09:18:49;101215.13;;;17.65
63689;BMP280;54895;40.928;14.480;2023-04-08T09:21:16;101213.66;;;17.47
63689;BMP280;54895;40.928;14.480;2023-04-08T09:23:47;101218.41;;;17.24
63689;BMP280;54895;40.928;14.480;2023-04-08T09:26:19;101212.34;;;17.55
63689;BMP280;54895;40.928;14.480;2023-04-08T09:28:59;101197.66;;;17.17
63689;BMP280;54895;40.928;14.480;2023-04-08T09:31:32;101174.69;;;17.16
63689;BMP280;54895;40.928;14.480;2023-04-08T09:34:00;101176.28;;;16.87
63689;BMP280;54895;40.928;14.480;2023-04-08T09:36:29;101187.69;;;16.95
63689;BMP280;54895;40.928;14.480;2023-04-08T09:38:55;101186.84;;;16.85
63689;BMP280;54895;40.928;14.480;2023-04-08T09:41:27;101177.97;;;16.45
63689;BMP280;54895;40.928;14.480;2023-04-08T09:43:55;101189.59;;;16.55
63689;BMP280;54895;40.928;14.480;2023-04-08T09:46:32;101201.03;;;16.78
63689;BMP280;54895;40.928;14.480;2023-04-08T09:49:04;101194.44;;;16.56
63689;BMP280;54895;40.928;14.480;2023-04-08T09:51:39;101206.81;;;16.52
63689;BMP280;54895;40.928;14.480;2023-04-08T09:54:11;101176.69;;;16.61
63689;BMP280;54895;40.928;14.480;2023-04-08T09:57:08;101176.69;;;16.68
63689;BMP280;54895;40.928;14.480;2023-04-08T09:59:36;101163.41;;;16.78
63689;BMP280;54895;40.928;14.480;2023-04-08T10:02:09;101162.84;;;16.79
63689;BMP280;54895;40.928;14.480;2023-04-08T10:04:38;101169.91;;;16.60
63689;BMP280;54895;40.928;14.480;2023-04-08T10:07:07;101160.91;;;16.65
63689;BMP280;54895;40.928;14.480;2023-04-08T10:09:34;101153.94;;;16.54
63689;BMP280;54895;40.928;14.480;2023-04-08T10:12:03;101161.31;;;16.39
63689;BMP280;54895;40.928;14.480;2023-04-08T10:14:29;101172.75;;;16.54
63689;BMP280;54895;40.928;14.480;2023-04-08T10:17:27;101179.63;;;16.33
63689;BMP280;54895;40.928;14.480;2023-04-08T10:19:54;101175.69;;;16.04
63689;BMP280;54895;40.928;14.480;2023-04-08T10:27:40;101149.22;;;16.01
63689;BMP280;54895;40.928;14.480;2023-04-08T10:32:57;101184.28;;;15.80
63689;BMP280;54895;40.928;14.480;2023-04-08T10:35:31;101161.38;;;15.79
63689;BMP280;54895;40.928;14.480;2023-04-08T10:37:58;101177.13;;;15.75
63689;BMP280;54895;40.928;14.480;2023-04-08T10:40:24;101160.63;;;15.64
63689;BMP280;54895;40.928;14.480;2023-04-08T10:42:58;101178.13;;;15.50
63689;BMP280;54895;40.928;14.480;2023-04-08T10:45:25;101183.13;;;15.38
63689;BMP280;54895;40.928;14.480;2023-04-08T10:47:51;101188.75;;;15.20
63689;BMP280;54895;40.928;14.480;2023-04-08T11:04:12;101032.81;;;11.44
63689;BMP280;54895;40.928;14.480;2023-04-08T11:08:50;101010.19;;;10.76
63689;BMP280;54895;40.928;14.480;2023-04-08T11:21:45;100763.53;;;9.97
63689;BMP280;54895;40.928;14.480;2023-04-08T11:26:16;100800.59;;;10.08
63689;BMP280;54895;40.928;14.480;2023-04-08T11:30:30;100923.41;;;9.48
63689;BMP280;54895;40.928;14.480;2023-04-08T11:43:10;101134.50;;;10.22
63689;BMP280;54895;40.928;14.480;2023-04-08T11:45:38;101128.19;;;10.25
63689;BMP280;54895;40.928;14.480;2023-04-08T11:48:13;101148.47;;;10.87
63689;BMP280;54895;40.928;14.480;2023-04-08T11:50:41;101134.41;;;10.63
63689;BMP280;54895;40.928;14.480;2023-04-08T11:53:18;101096.28;;;9.96
63689;BMP280;54895;40.928;14.480;2023-04-08T11:55:45;101089.16;;;10.09
63689;BMP280;54895;40.928;14.480;2023-04-08T11:58:12;101054.81;;;10.41
63689;BMP280;54895;40.928;14.480;2023-04-08T12:00:39;101040.06;;;10.40
63689;BMP280;54895;40.928;14.480;2023-04-08T12:03:15;101048.19;;;10.53
63689;BMP280;54895;40.928;14.480;2023-04-08T12:05:41;101055.44;;;10.52
63689;BMP280;54895;40.928;14.480;2023-04-08T12:08:08;101089.41;;;11.13
63689;BMP280;54895;40.928;14.480;2023-04-08T12:10:34;101093.81;;;11.29
63689;BMP280;54895;40.928;14.480;2023-04-08T12:13:01;101119.94;;;11.30
63689;BMP280;54895;40.928;14.480;2023-04-08T12:15:27;101120.72;;;11.62
63689;BMP280;54895;40.928;14.480;2023-04-08T12:17:54;101145.44;;;11.63
63689;BMP280;54895;40.928;14.480;2023-04-08T12:20:20;101163.34;;;11.62
63689;BMP280;54895;40.928;14.480;2023-04-08T12:22:54;101183.19;;;11.67
63689;BMP280;54895;40.928;14.480;2023-04-08T12:25:21;101168.19;;;11.64
63689;BMP280;54895;40.928;14.480;2023-04-08T12:27:47;101147.50;;;11.33
63689;BMP280;54895;40.928;14.480;2023-04-08T12:30:13;101132.16;;;11.39
63689;BMP280;54895;40.928;14.480;2023-04-08T12:32:40;101128.84;;;11.70
63689;BMP280;54895;40.928;14.480;2023-04-08T12:35:07;101138.06;;;12.19
63689;BMP280;54895;40.928;14.480;2023-04-08T12:37:37;101143.78;;;12.10
63689;BMP280;54895;40.928;14.480;2023-04-08T12:40:04;101135.88;;;12.04
63689;BMP280;54895;40.928;14.480;2023-04-08T12:42:31;101136.81;;;12.64
63689;BMP280;54895;40.928;14.480;2023-04-08T12:45:06;101138.72;;;13.28
63689;BMP280;54895;40.928;14.480;2023-04-08T12:47:50;101154.31;;;14.32
63689;BMP280;54895;40.928;14.480;2023-04-08T12:57:17;101137.16;;;14.48
63689;BMP280;54895;40.928;14.480;2023-04-08T12:59:44;101119.66;;;14.19
63689;BMP280;54895;40.928;14.480;2023-04-08T13:02:11;101116.53;;;14.36
63689;BMP280;54895;40.928;14.480;2023-04-08T13:04:38;101108.34;;;14.41
63689;BMP280;54895;40.928;14.480;2023-04-08T13:07:04;101098.91;;;14.20
63689;BMP280;54895;40.928;14.480;2023-04-08T13:09:32;101090.00;;;14.17
63689;BMP280;54895;40.928;14.480;2023-04-08T13:11:58;101093.13;;;14.08
63689;BMP280;54895;40.928;14.480;2023-04-08T13:14:25;101092.19;;;14.26
63689;BMP280;54895;40.928;14.480;2023-04-08T13:16:52;101093.06;;;14.49
63689;BMP280;54895;40.928;14.480;2023-04-08T13:19:19;101092.88;;;14.47
63689;BMP280;54895;40.928;14.480;2023-04-08T13:21:45;101088.09;;;14.53
63689;BMP280;54895;40.928;14.480;2023-04-08T13:24:11;101097.81;;;14.71
63689;BMP280;54895;40.928;14.480;2023-04-08T13:26:38;101094.03;;;14.67
63689;BMP280;54895;40.928;14.480;2023-04-08T13:29:04;101074.13;;;14.47
63689;BMP280;54895;40.928;14.480;2023-04-08T13:31:32;101072.69;;;14.46
63689;BMP280;54895;40.928;14.480;2023-04-08T13:33:59;101044.41;;;14.30
63689;BMP280;54895;40.928;14.480;2023-04-08T13:36:25;101037.06;;;14.23
63689;BMP280;54895;40.928;14.480;2023-04-08T13:38:53;101063.91;;;14.10
63689;BMP280;54895;40.928;14.480;2023-04-08T13:41:19;101088.94;;;14.20
63689;BMP280;54895;40.928;14.480;2023-04-08T13:43:46;101078.09;;;14.61
63689;BMP280;54895;40.928;14.480;2023-04-08T13:46:12;101081.19;;;14.73
63689;BMP280;54895;40.928;14.480;2023-04-08T13:48:38;101103.75;;;14.49
63689;BMP280;54895;40.928;14.480;2023-04-08T13:51:04;101099.34;;;15.02
63689;BMP280;54895;40.928;14.480;2023-04-08T13:53:31;101123.78;;;14.91
63689;BMP280;54895;40.928;14.480;2023-04-08T13:55:57;101106.72;;;14.66
63689;BMP280;54895;40.928;14.480;2023-04-08T13:58:24;101138.31;;;15.03
63689;BMP280;54895;40.928;14.480;2023-04-08T14:00:51;101134.50;;;14.91
63689;BMP280;54895;40.928;14.480;2023-04-08T14:03:18;101136.34;;;15.04
63689;BMP280;54895;40.928;14.480;2023-04-08T14:05:44;101126.91;;;15.10
63689;BMP280;54895;40.928;14.480;2023-04-08T14:08:11;101146.88;;;14.94
63689;BMP280;54895;40.928;14.480;2023-04-08T14:10:38;101151.59;;;15.16
63689;BMP280;54895;40.928;14.480;2023-04-08T14:13:05;101151.94;;;15.28
63689;BMP280;54895;40.928;14.480;2023-04-08T14:15:32;101154.41;;;15.03
63689;BMP280;54895;40.928;14.480;2023-04-08T14:17:59;101160.16;;;15.22
63689;BMP280;54895;40.928;14.480;2023-04-08T14:20:26;101156.06;;;15.21
63689;BMP280;54895;40.928;14.480;2023-04-08T14:22:52;101173.53;;;15.07
63689;BMP280;54895;40.928;14.480;2023-04-08T14:25:19;101162.06;;;14.99
63689;BMP280;54895;40.928;14.480;2023-04-08T14:27:45;101125.97;;;15.00
63689;BMP280;54895;40.928;14.480;2023-04-08T14:30:12;101078.97;;;14.99
63689;BMP280;54895;40.928;14.480;2023-04-08T14:32:39;101044.41;;;14.30
63689;BMP280;54895;40.928;14.480;2023-04-08T14:35:05;101007.06;;;13.97
63689;BMP280;54895;40.928;14.480;2023-04-08T14:37:32;101002.03;;;14.49
63689;BMP280;54895;40.928;14.480;2023-04-08T14:39:59;101013.19;;;14.83
63689;BMP280;54895;40.928;14.480;2023-04-08T14:42:26;101052.22;;;15.29
63689;BMP280;54895;40.928;14.480;2023-04-08T14:44:52;101072.81;;;15.94
63689;BMP280;54895;40.928;14.480;2023-04-08T14:47:19;101112.16;;;16.76
63689;BMP280;54895;40.928;14.480;2023-04-08T14:49:46;101118.91;;;16.84
63689;BMP280;54895;40.928;14.480;2023-04-08T14:52:15;101113.06;;;16.09
63689;BMP280;54895;40.928;14.480;2023-04-08T14:54:42;101109.50;;;15.69